Time;durP1;ratioP1;P1;durP2;ratioP2;P2;SDS_P1;SDS_P2;PMS_P1;PMS_P2;Temp;Humidity;BMP_temperature;BMP_pressure;BME280_temperature;BME280_humidity;BME280_pressure;Samples;Min_cycle;Max_cycle;Signal;HPM_P1;HPM_P2
2022/07/23 00:02:24;;;;;;;43.13;32.20;;;;;;;17.11;100.00;101099.41;5015795;28;20522;-78
2022/07/23 00:04:50;;;;;;;41.50;30.33;;;;;;;17.12;100.00;101098.41;5014431;28;20084;-78
2022/07/23 00:07:17;;;;;;;39.08;31.15;;;;;;;17.17;100.00;101109.25;5014892;28;20053;-78
2022/07/23 00:09:44;;;;;;;39.28;30.83;;;;;;;17.24;100.00;101106.69;5015018;28;20073;-78
2022/07/23 00:12:10;;;;;;;41.15;29.50;;;;;;;17.22;100.00;101106.03;5016810;28;20092;-78
2022/07/23 00:14:37;;;;;;;37.13;28.88;;;;;;;17.18;100.00;101086.28;5022394;28;20092;-80
2022/07/23 00:17:05;;;;;;;34.58;29.08;;;;;;;17.13;100.00;101080.72;5036718;28;20128;-79
2022/07/23 00:19:32;;;;;;;41.88;31.85;;;;;;;17.16;100.00;101090.94;5036380;28;20105;-79
2022/07/23 00:21:58;;;;;;;41.10;30.48;;;;;;;17.23;100.00;101100.56;5036248;28;20081;-80
2022/07/23 00:24:25;;;;;;;40.03;30.30;;;;;;;17.30;100.00;101100.63;5036432;28;20121;-79
2022/07/23 00:26:51;;;;;;;40.25;31.20;;;;;;;17.39;100.00;101094.22;5032709;28;20128;-79
2022/07/23 00:29:18;;;;;;;41.45;32.40;;;;;;;17.23;100.00;101081.25;5015306;28;20046;-80
2022/07/23 00:31:45;;;;;;;45.03;30.58;;;;;;;17.21;100.00;101080.59;5020002;28;20152;-79
2022/07/23 00:34:13;;;;;;;43.40;32.60;;;;;;;17.09;100.00;101082.09;5035150;28;20128;-79
2022/07/23 00:36:39;;;;;;;42.15;31.92;;;;;;;17.18;100.00;101075.69;5035135;28;20059;-79
2022/07/23 00:39:06;;;;;;;45.03;33.28;;;;;;;17.19;100.00;101077.34;5035938;28;20132;-79
2022/07/23 00:41:33;;;;;;;44.03;31.48;;;;;;;17.12;100.00;101071.16;5026588;28;20085;-79
2022/07/23 00:44:18;;;;;;;40.45;31.38;;;;;;;17.10;100.00;101065.22;5015526;28;20119;-78
2022/07/23 00:46:49;;;;;;;43.92;32.38;;;;;;;17.02;100.00;101073.28;5015095;28;20081;-78
2022/07/23 00:49:17;;;;;;;41.95;31.38;;;;;;;17.03;100.00;101077.56;5014473;28;20069;-78
2022/07/23 00:51:43;;;;;;;45.80;32.63;;;;;;;17.02;100.00;101081.22;5015645;28;20134;-78
2022/07/23 00:54:11;;;;;;;42.83;31.80;;;;;;;16.95;100.00;101065.31;5013515;28;20520;-78
2022/07/23 00:56:37;;;;;;;45.95;32.15;;;;;;;17.13;100.00;101064.84;5012881;28;20148;-78
2022/07/23 00:59:04;;;;;;;40.50;30.08;;;;;;;17.09;100.00;101061.78;5028974;28;20129;-77
2022/07/23 01:01:31;;;;;;;38.70;29.42;;;;;;;17.06;100.00;101061.31;5034753;28;20156;-78
2022/07/23 01:03:57;;;;;;;37.33;28.17;;;;;;;17.07;100.00;101057.69;5033782;28;20100;-79
2022/07/23 01:06:25;;;;;;;37.88;29.60;;;;;;;17.11;100.00;101064.22;5035064;28;20080;-79
2022/07/23 01:08:53;;;;;;;35.75;28.00;;;;;;;17.14;100.00;101064.66;5034469;28;20084;-78
2022/07/23 01:11:20;;;;;;;40.13;30.05;;;;;;;17.21;100.00;101075.31;5034797;28;20541;-78
2022/07/23 01:13:48;;;;;;;39.22;28.48;;;;;;;17.29;100.00;101082.31;5034094;28;20051;-79
2022/07/23 01:16:15;;;;;;;36.65;28.08;;;;;;;17.24;100.00;101085.53;5035290;28;20113;-80
2022/07/23 01:18:41;;;;;;;40.25;29.38;;;;;;;17.28;100.00;101081.50;5018087;28;20057;-80
2022/07/23 01:21:12;;;;;;;41.85;30.17;;;;;;;17.12;100.00;101081.72;5016400;28;20081;-79
2022/07/23 01:23:41;;;;;;;38.60;30.83;;;;;;;17.08;100.00;101076.00;5019457;28;20402;-79
2022/07/23 01:26:07;;;;;;;40.72;30.17;;;;;;;17.07;100.00;101071.72;5019613;28;20155;-79
2022/07/23 01:28:34;;;;;;;36.92;28.60;;;;;;;17.03;100.00;101061.69;5033287;28;20136;-79
2022/07/23 01:31:00;;;;;;;39.53;30.15;;;;;;;17.05;100.00;101060.50;5034391;28;20116;-79
2022/07/23 01:33:27;;;;;;;37.17;28.70;;;;;;;17.08;100.00;101067.25;5034193;28;20085;-79
2022/07/23 01:35:54;;;;;;;36.20;28.00;;;;;;;17.12;100.00;101079.09;5034243;28;20084;-78
2022/07/23 01:38:20;;;;;;;35.35;28.25;;;;;;;17.03;100.00;101072.28;5033999;28;20081;-79
2022/07/23 01:40:48;;;;;;;36.83;29.33;;;;;;;16.98;100.00;101075.50;5033986;28;20124;-78
2022/07/23 01:43:15;;;;;;;40.28;29.92;;;;;;;16.88;100.00;101070.50;5024167;28;20137;-77
2022/07/23 01:45:43;;;;;;;43.13;32.28;;;;;;;16.73;100.00;101060.97;5014717;28;20081;-76
2022/07/23 01:48:10;;;;;;;41.88;31.10;;;;;;;16.62;100.00;101064.88;5013188;28;20532;-78
2022/07/23 01:50:37;;;;;;;46.70;32.67;;;;;;;16.49;100.00;101062.91;5014477;28;20074;-79
2022/07/23 01:53:03;;;;;;;42.95;34.17;;;;;;;16.42;100.00;101054.09;5015360;28;20192;-79
2022/07/23 01:55:30;;;;;;;50.60;35.08;;;;;;;16.44;100.00;101059.19;5015223;28;20140;-79
2022/07/23 01:57:58;;;;;;;47.35;33.95;;;;;;;16.45;100.00;101058.19;5015541;28;20089;-79
2022/07/23 02:00:24;;;;;;;47.25;34.10;;;;;;;16.38;100.00;101057.28;5016005;28;20129;-78
2022/07/23 02:02:51;;;;;;;48.10;34.45;;;;;;;16.36;100.00;101052.16;5016650;28;20121;-79
2022/07/23 02:05:18;;;;;;;46.17;33.90;;;;;;;16.39;100.00;101048.34;5016500;28;20137;-79
2022/07/23 02:07:44;;;;;;;46.33;33.80;;;;;;;16.27;100.00;101048.81;5015359;28;20097;-79
2022/07/23 02:10:11;;;;;;;48.50;34.88;;;;;;;16.21;100.00;101049.53;5015394;28;20085;-79
2022/07/23 02:12:38;;;;;;;47.10;34.22;;;;;;;16.24;100.00;101051.81;5015002;28;20145;-79
2022/07/23 02:15:08;;;;;;;49.88;36.70;;;;;;;16.23;100.00;101050.16;5015406;28;20121;-79
2022/07/23 02:17:34;;;;;;;48.17;35.22;;;;;;;16.18;100.00;101049.88;5018422;28;20045;-79
2022/07/23 02:20:01;;;;;;;50.60;35.03;;;;;;;16.13;100.00;101044.34;5015238;28;20054;-79
2022/07/23 02:22:28;;;;;;;50.33;34.25;;;;;;;16.10;100.00;101049.16;5014548;28;20058;-79
2022/07/23 02:24:55;;;;;;;46.90;34.30;;;;;;;16.06;100.00;101048.72;5014645;28;20137;-79
2022/07/23 02:27:21;;;;;;;52.80;36.45;;;;;;;16.05;100.00;101047.09;5024081;28;20081;-79
2022/07/23 02:29:48;;;;;;;55.35;36.33;;;;;;;16.03;100.00;101053.53;5034091;28;20505;-79
2022/07/23 02:32:16;;;;;;;53.90;36.95;;;;;;;16.00;100.00;101046.81;5033962;28;20085;-79
2022/07/23 02:34:43;;;;;;;52.25;34.95;;;;;;;15.92;100.00;101045.06;5034998;28;20167;-79
2022/07/23 02:37:09;;;;;;;52.28;37.03;;;;;;;15.89;100.00;101056.00;5034655;28;20077;-79
2022/07/23 02:39:36;;;;;;;53.00;36.55;;;;;;;15.89;100.00;101055.16;5029229;28;20101;-79
2022/07/23 02:42:03;;;;;;;54.30;36.38;;;;;;;15.93;100.00;101053.81;5018740;28;20081;-80
2022/07/23 02:44:30;;;;;;;52.53;36.88;;;;;;;15.87;100.00;101062.44;5018286;28;20116;-80
2022/07/23 02:46:56;;;;;;;48.88;36.22;;;;;;;15.85;100.00;101056.53;5019043;28;20077;-80
2022/07/23 02:49:24;;;;;;;55.13;35.78;;;;;;;15.79;100.00;101054.59;5017995;28;20121;-80
2022/07/23 02:51:52;;;;;;;53.22;35.55;;;;;;;15.70;100.00;101045.13;5020785;28;20124;-79
2022/07/23 02:54:18;;;;;;;54.15;36.75;;;;;;;15.68;100.00;101049.75;5018752;28;20057;-79
2022/07/23 02:56:45;;;;;;;53.83;36.53;;;;;;;15.65;100.00;101058.84;5021465;28;20080;-80
2022/07/23 02:59:12;;;;;;;56.65;35.80;;;;;;;15.70;100.00;101059.13;5020277;28;20221;-80
2022/07/23 03:01:38;;;;;;;50.83;36.25;;;;;;;15.60;100.00;101054.09;5020126;28;20078;-81
2022/07/23 03:04:05;;;;;;;51.13;35.05;;;;;;;15.58;100.00;101060.56;5020399;28;20054;-80
2022/07/23 03:06:33;;;;;;;54.92;37.25;;;;;;;15.49;100.00;101066.88;5031040;28;20064;-80
2022/07/23 03:09:00;;;;;;;56.63;39.03;;;;;;;15.40;100.00;101057.38;5039578;28;20072;-80
2022/07/23 03:11:27;;;;;;;62.55;39.38;;;;;;;15.46;100.00;101052.22;5039379;28;20080;-80
2022/07/23 03:13:53;;;;;;;58.75;38.72;;;;;;;15.40;100.00;101057.38;5039380;28;20502;-80
2022/07/23 03:16:20;;;;;;;59.33;38.70;;;;;;;15.35;100.00;101062.38;5039084;28;20084;-80
2022/07/23 03:18:46;;;;;;;58.25;38.17;;;;;;;15.31;100.00;101059.25;5037868;28;20085;-80
2022/07/23 03:21:13;;;;;;;58.92;38.38;;;;;;;15.28;100.00;101063.06;5038576;28;20081;-80
2022/07/23 03:23:41;;;;;;;57.45;38.83;;;;;;;15.28;100.00;101063.06;5036789;28;20081;-80
2022/07/23 03:26:08;;;;;;;61.08;39.85;;;;;;;15.28;100.00;101059.63;5040144;28;20057;-80
2022/07/23 03:28:34;;;;;;;60.20;39.10;;;;;;;15.27;100.00;101063.25;5040812;28;20077;-80
2022/07/23 03:31:01;;;;;;;59.60;38.65;;;;;;;15.23;100.00;101067.22;5045675;28;20033;-81
2022/07/23 03:33:42;;;;;;;53.95;38.50;;;;;;;15.22;100.00;101055.03;5051568;28;20083;-80
2022/07/23 03:36:29;;;;;;;55.22;37.47;;;;;;;15.06;100.00;101039.38;5048070;28;20061;-79
2022/07/23 03:39:09;;;;;;;54.85;37.17;;;;;;;15.07;100.00;101038.38;5046768;28;20497;-80
2022/07/23 03:47:35;;;;;;;56.78;37.72;;;;;;;14.93;100.00;101026.75;5035563;28;20053;-81
2022/07/23 03:50:41;;;;;;;54.85;37.60;;;;;;;14.98;100.00;101034.97;5043803;28;20069;-80
2022/07/23 03:53:52;;;;;;;;;;;;;;;;;;;;;
2022/07/23 03:56:59;;;;;;;53.92;36.88;;;;;;;14.93;100.00;101048.66;5030662;28;20057;-80
2022/07/23 04:02:59;;;;;;;50.80;34.45;;;;;;;15.00;100.00;101056.69;5007686;28;20396;-79
2022/07/23 04:05:30;;;;;;;62.53;37.35;;;;;;;15.10;100.00;101059.09;5020778;28;20514;-80
2022/07/23 04:08:03;;;;;;;54.80;35.83;;;;;;;15.17;100.00;101063.47;5019773;28;20399;-80
2022/07/23 04:10:36;;;;;;;63.55;36.78;;;;;;;15.24;100.00;101066.22;5019108;28;20046;-79
2022/07/23 04:13:28;;;;;;;55.70;36.17;;;;;;;15.18;100.00;101043.22;5022295;28;20118;-80
2022/07/23 04:19:45;;;;;;;52.70;35.03;;;;;;;15.46;100.00;101041.69;5000786;28;20049;-81
2022/07/23 04:25:28;;;;;;;50.38;32.97;;;;;;;15.64;100.00;101064.28;5026824;28;20054;-81
2022/07/23 04:34:14;;;;;;;46.90;30.75;;;;;;;16.41;100.00;101073.56;5037892;28;20042;-81
2022/07/23 04:56:54;;;;;;;;;;;;;;;17.14;100.00;101109.63;4857340;29;20060;-81
2022/07/23 04:59:45;;;;;;;37.85;27.77;;;;;;;17.49;100.00;101110.56;4904770;29;19922;-83
2022/07/23 05:09:34;;;;;;;40.55;26.80;;;;;;;17.80;100.00;101123.53;4983583;28;20058;-80
2022/07/23 05:25:42;;;;;;;32.00;23.38;;;;;;;18.41;98.87;101114.97;4916575;29;20563;-80
2022/07/23 05:28:18;;;;;;;29.58;21.67;;;;;;;19.21;94.81;101112.44;4919111;29;20056;-79
2022/07/23 05:30:52;;;;;;;24.65;19.38;;;;;;;19.87;90.77;101130.28;4916237;29;20052;-79
2022/07/23 05:33:21;;;;;;;25.40;19.98;;;;;;;20.46;88.41;101126.75;4930578;29;20052;-79
2022/07/23 05:35:48;;;;;;;26.20;19.05;;;;;;;20.88;86.45;101136.81;4980977;28;20140;-79
2022/07/23 05:38:15;;;;;;;26.20;19.63;;;;;;;21.17;84.33;101140.78;5015218;28;20057;-80
2022/07/23 05:40:43;;;;;;;25.08;18.10;;;;;;;21.27;83.51;101143.00;5012340;28;20045;-79
2022/07/23 05:43:10;;;;;;;24.42;18.85;;;;;;;21.11;84.02;101156.78;5013282;28;20077;-79
2022/07/23 05:45:44;;;;;;;26.52;17.95;;;;;;;21.12;83.83;101137.94;5012610;28;20057;-81
2022/07/23 05:48:12;;;;;;;24.80;17.85;;;;;;;20.45;86.29;101141.06;5015454;28;20050;-79
2022/07/23 05:50:40;;;;;;;24.55;18.95;;;;;;;20.83;85.80;101155.25;5012757;28;20436;-78
2022/07/23 05:53:07;;;;;;;25.35;17.88;;;;;;;21.25;85.86;101150.41;5011882;28;20434;-78
2022/07/23 05:55:34;;;;;;;27.63;18.35;;;;;;;21.30;83.91;101129.25;5013145;28;20057;-80
2022/07/23 05:58:06;;;;;;;23.52;18.02;;;;;;;21.71;82.89;101138.63;5023629;28;20054;-81
2022/07/23 06:01:20;;;;;;;24.98;19.17;;;;;;;21.74;81.36;101152.28;5029886;28;20053;-83
2022/07/23 06:08:25;;;;;;;21.85;17.73;;;;;;;22.09;80.06;101135.84;4942636;29;20055;-83
2022/07/23 06:25:35;;;;;;;25.05;17.35;;;;;;;24.08;73.02;101135.66;4910207;29;20108;-80
2022/07/23 06:35:33;;;;;;;26.63;18.73;;;;;;;22.96;76.45;101155.22;4936018;28;20074;-81
2022/07/23 06:38:35;;;;;;;29.00;20.58;;;;;;;23.17;75.29;101162.72;4968446;28;20050;-81
2022/07/23 06:54:53;;;;;;;21.27;16.98;;;;;;;24.69;69.06;101161.06;5021062;28;20053;-81
2022/07/23 06:57:26;;;;;;;23.92;18.77;;;;;;;24.38;69.71;101153.44;5066120;28;20075;-83
2022/07/23 07:00:00;;;;;;;24.60;18.10;;;;;;;24.02;70.14;101144.63;5055163;28;20041;-82
2022/07/23 07:02:40;;;;;;;25.10;19.10;;;;;;;23.72;73.12;101170.59;5050369;28;20106;-83
2022/07/23 07:05:09;;;;;;;23.25;18.75;;;;;;;23.41;72.61;101177.81;5051337;28;20057;-82
2022/07/23 07:07:36;;;;;;;22.00;17.95;;;;;;;23.31;74.67;101180.22;5050393;28;20131;-83
2022/07/23 07:10:05;;;;;;;23.00;18.02;;;;;;;23.05;74.30;101167.22;5048285;28;20049;-83
2022/07/23 07:12:31;;;;;;;27.38;18.08;;;;;;;23.18;74.41;101172.38;5050247;28;20049;-81
2022/07/23 07:14:58;;;;;;;19.85;17.23;;;;;;;24.30;71.71;101177.88;5049228;28;20084;-79
2022/07/23 07:17:28;;;;;;;18.45;14.90;;;;;;;25.48;68.93;101165.81;5057466;28;20057;-79
2022/07/23 07:19:57;;;;;;;19.67;15.10;;;;;;;26.04;65.48;101180.94;5059023;28;20071;-79
2022/07/23 07:22:24;;;;;;;19.13;14.23;;;;;;;26.00;67.61;101188.66;5059397;28;20080;-79
2022/07/23 07:24:50;;;;;;;19.92;15.77;;;;;;;26.08;66.05;101187.44;5061266;28;20083;-80
2022/07/23 07:27:18;;;;;;;19.50;15.32;;;;;;;26.40;64.28;101176.94;5058921;28;20103;-80
2022/07/23 07:29:47;;;;;;;18.98;14.90;;;;;;;26.33;63.17;101176.31;5062727;28;20045;-79
2022/07/23 07:32:14;;;;;;;19.23;15.45;;;;;;;26.20;62.51;101176.63;5061615;28;20041;-81
2022/07/23 07:34:41;;;;;;;18.85;15.00;;;;;;;26.66;62.57;101186.94;5069206;28;20107;-81
2022/07/23 07:37:07;;;;;;;18.73;15.13;;;;;;;26.57;61.40;101183.06;5068310;28;20049;-80
2022/07/23 07:39:34;;;;;;;16.63;13.60;;;;;;;27.06;62.16;101192.00;5064912;28;20045;-80
2022/07/23 07:42:02;;;;;;;19.98;14.50;;;;;;;27.10;62.34;101203.06;5061713;28;20077;-79
2022/07/23 07:44:30;;;;;;;20.02;15.40;;;;;;;26.80;62.99;101190.06;5065681;28;20049;-79
2022/07/23 07:46:56;;;;;;;17.10;14.98;;;;;;;27.13;61.22;101199.88;5065226;28;20049;-80
2022/07/23 07:49:23;;;;;;;23.98;17.40;;;;;;;26.55;61.96;101193.22;5054678;28;20045;-79
2022/07/23 07:51:50;;;;;;;22.40;16.17;;;;;;;25.56;64.85;101190.31;5047761;28;20077;-83
2022/07/23 07:54:17;;;;;;;20.48;16.20;;;;;;;25.82;64.39;101193.47;5049218;28;20457;-80
2022/07/23 07:56:43;;;;;;;24.65;18.60;;;;;;;25.00;65.92;101191.16;5049556;28;20093;-80
2022/07/23 07:59:11;;;;;;;25.45;18.58;;;;;;;24.24;68.19;101200.97;5066457;28;20099;-81
2022/07/23 08:01:39;;;;;;;24.08;19.13;;;;;;;24.65;69.17;101202.72;5067785;28;20055;-82
2022/07/23 08:04:05;;;;;;;25.17;18.40;;;;;;;25.94;65.49;101195.03;5063335;28;20083;-83
2022/07/23 08:06:32;;;;;;;24.98;19.63;;;;;;;26.07;63.92;101207.25;5054914;28;20049;-81
2022/07/23 08:08:58;;;;;;;24.60;19.35;;;;;;;25.41;64.95;101204.28;5061362;28;20048;-78
2022/07/23 08:11:25;;;;;;;27.95;19.73;;;;;;;24.73;66.24;101204.22;5058513;28;20053;-78
2022/07/23 08:13:52;;;;;;;24.33;19.90;;;;;;;24.75;66.30;101210.16;5061518;28;20091;-79
2022/07/23 08:16:18;;;;;;;21.33;17.67;;;;;;;25.81;66.12;101205.25;5064431;28;20112;-81
2022/07/23 08:18:47;;;;;;;24.20;16.77;;;;;;;26.68;60.29;101217.03;5054248;28;20081;-81
2022/07/23 08:21:14;;;;;;;22.60;18.35;;;;;;;26.57;60.63;101215.25;5045461;28;20136;-80
2022/07/23 08:23:40;;;;;;;20.38;16.67;;;;;;;26.42;58.62;101220.44;5044645;28;20081;-79
2022/07/23 08:26:07;;;;;;;22.20;16.15;;;;;;;27.19;58.06;101216.88;5061683;28;20060;-79
2022/07/23 08:28:34;;;;;;;22.17;16.75;;;;;;;26.63;58.59;101211.59;5060122;28;20076;-80
2022/07/23 08:31:01;;;;;;;17.73;15.50;;;;;;;26.89;58.78;101217.31;5058316;28;20132;-79
2022/07/23 08:33:28;;;;;;;22.75;17.63;;;;;;;26.96;57.88;101224.13;5062864;28;20116;-79
2022/07/23 08:35:57;;;;;;;21.08;17.50;;;;;;;26.34;59.20;101223.53;5058424;28;20060;-79
2022/07/23 08:38:24;;;;;;;27.05;20.45;;;;;;;25.88;58.65;101225.47;5057440;28;20083;-79
2022/07/23 08:40:53;;;;;;;23.55;19.08;;;;;;;25.55;61.64;101222.72;5055809;28;20049;-80
2022/07/23 08:43:47;;;;;;;24.50;18.55;;;;;;;25.77;62.04;101210.28;5221399;22;20076;-81
2022/07/23 08:46:32;;;;;;;23.85;18.75;;;;;;;26.11;60.20;101224.50;5025289;28;20442;-78
2022/07/23 08:49:11;;;;;;;20.08;17.98;;;;;;;25.42;59.43;101219.28;5045046;28;20045;-82
2022/07/23 08:58:36;;;;;;;20.02;16.05;;;;;;;26.86;56.16;101210.56;5015961;28;20047;-82
2022/07/23 09:04:06;;;;;;;19.08;17.05;;;;;;;24.41;60.87;101217.19;5029407;28;20113;-79
2022/07/23 09:06:36;;;;;;;19.30;15.88;;;;;;;24.33;62.36;101206.81;5034802;28;20053;-81
2022/07/23 09:09:48;;;;;;;19.63;16.33;;;;;;;25.75;60.06;101217.75;5046396;28;20050;-79
2022/07/23 09:12:30;;;;;;;19.97;15.53;;;;;;;26.75;57.90;101233.78;5039200;28;20045;-82
2022/07/23 09:21:37;;;;;;;18.85;15.23;;;;;;;26.67;56.72;101219.97;5038674;28;20049;-78
2022/07/23 09:24:05;;;;;;;18.10;15.60;;;;;;;25.84;57.63;101218.16;5038368;28;20080;-83
2022/07/23 09:26:37;;;;;;;22.98;15.63;;;;;;;26.01;59.32;101235.88;5039686;28;20064;-81
2022/07/23 09:29:28;;;;;;;16.88;14.00;;;;;;;26.77;56.03;101245.06;5043829;28;20049;-82
2022/07/23 09:32:04;;;;;;;18.08;14.15;;;;;;;26.68;56.51;101227.78;5037283;28;20115;-81
2022/07/23 09:37:30;;;;;;;15.70;14.07;;;;;;;26.90;54.83;101235.03;5035032;28;20061;-81
2022/07/23 09:40:06;;;;;;;18.80;15.00;;;;;;;26.66;55.58;101235.25;5024777;28;20046;-81
2022/07/23 09:42:37;;;;;;;19.77;15.80;;;;;;;25.13;57.10;101250.59;5033564;28;20043;-81
2022/07/23 09:45:12;;;;;;;16.27;14.57;;;;;;;25.53;60.47;101252.41;5031314;28;20064;-81
2022/07/23 09:55:14;;;;;;;16.23;12.90;;;;;;;26.99;55.84;101249.66;5020868;28;20119;-78
2022/07/23 10:07:35;;;;;;;;;;;;;;;;;;;;;
2022/07/23 10:10:07;;;;;;;15.02;13.13;;;;;;;25.66;56.76;101224.56;5031719;28;20050;-83
2022/07/23 10:13:00;;;;;;;;;;;;;;;;;;;;;
2022/07/23 10:15:54;;;;;;;;;;;;;;;24.98;58.01;101233.44;5031477;28;20070;-80
2022/07/23 10:26:30;;;;;;;12.63;9.98;;;;;;;25.24;58.50;101195.38;4972203;28;20058;-82
2022/07/23 10:32:21;;;;;;;15.43;12.00;;;;;;;25.75;56.08;101221.25;5027536;23;20058;-81
2022/07/23 10:34:53;;;;;;;16.13;12.57;;;;;;;25.14;58.36;101221.94;5040556;28;20236;-81
2022/07/23 10:37:29;;;;;;;13.63;12.02;;;;;;;25.58;56.79;101219.53;5046199;28;20077;-79
2022/07/23 10:40:16;;;;;;;14.52;11.05;;;;;;;25.81;54.61;101215.97;5042866;28;20050;-80
2022/07/23 10:42:44;;;;;;;11.90;10.55;;;;;;;24.88;54.10;101212.56;5043764;28;20046;-83
2022/07/23 10:45:28;;;;;;;16.27;12.80;;;;;;;24.75;58.19;101212.81;5043446;28;20087;-81
2022/07/23 10:47:55;;;;;;;12.57;10.48;;;;;;;25.62;56.62;101202.75;5058346;28;20044;-81
2022/07/23 10:50:24;;;;;;;12.75;10.07;;;;;;;26.28;55.94;101208.38;5059466;28;20052;-84
2022/07/23 10:53:15;;;;;;;11.30;10.20;;;;;;;25.79;54.74;101202.81;5058581;28;20045;-84
2022/07/23 10:55:46;;;;;;;16.30;10.57;;;;;;;25.30;54.36;101209.66;5057925;28;20083;-84
2022/07/23 10:58:22;;;;;;;13.02;10.52;;;;;;;25.56;55.29;101192.19;5044844;28;20494;-82
2022/07/23 11:00:50;;;;;;;10.75;9.65;;;;;;;25.90;55.94;101215.31;5039748;28;20053;-80
2022/07/23 11:03:31;;;;;;;12.52;11.23;;;;;;;25.76;53.90;101208.66;5038138;28;20053;-81
2022/07/23 11:05:58;;;;;;;11.10;10.03;;;;;;;25.95;55.16;101203.88;5037219;28;20231;-81
2022/07/23 11:08:26;;;;;;;12.95;10.57;;;;;;;26.25;54.43;101207.00;5041908;28;20073;-79
2022/07/23 11:10:55;;;;;;;10.05;8.90;;;;;;;26.07;53.49;101208.06;5042359;28;20107;-82
2022/07/23 11:13:47;;;;;;;12.10;9.20;;;;;;;25.99;52.03;101203.16;5022282;28;20082;-80
2022/07/23 11:16:26;;;;;;;11.23;9.23;;;;;;;26.24;53.67;101210.75;5030856;28;20053;-85
2022/07/23 11:19:04;;;;;;;11.45;9.13;;;;;;;26.22;53.67;101206.69;5038505;28;20081;-80
2022/07/23 11:21:50;;;;;;;10.93;7.80;;;;;;;25.80;51.70;101207.13;5034169;28;20049;-81
2022/07/23 11:24:28;;;;;;;10.35;7.35;;;;;;;25.99;52.60;101205.81;5037728;28;20049;-82
2022/07/23 11:27:00;;;;;;;8.43;7.30;;;;;;;26.27;53.24;101201.41;5035014;28;20053;-81
2022/07/23 11:29:46;;;;;;;10.65;8.27;;;;;;;26.30;52.80;101204.41;5046075;28;20084;-83
2022/07/23 11:32:42;;;;;;;8.88;7.97;;;;;;;26.39;51.90;101202.16;5039423;28;20080;-81
2022/07/23 11:35:23;;;;;;;10.40;8.48;;;;;;;26.45;49.98;101203.84;5039171;28;20046;-80
2022/07/23 11:37:58;;;;;;;9.35;8.25;;;;;;;25.96;51.85;101195.59;5035585;28;20050;-82
2022/07/23 11:40:27;;;;;;;11.68;9.02;;;;;;;25.66;52.74;101192.38;5037871;28;20080;-81
2022/07/23 11:42:56;;;;;;;14.38;9.00;;;;;;;25.18;53.37;101192.81;5043365;28;20489;-81
2022/07/23 11:45:24;;;;;;;11.65;9.32;;;;;;;25.04;53.63;101189.66;5042687;28;20057;-81
2022/07/23 11:47:50;;;;;;;9.05;7.28;;;;;;;25.66;53.92;101190.53;5046562;28;20053;-80
2022/07/23 11:50:17;;;;;;;8.02;6.28;;;;;;;26.11;51.55;101189.63;5043744;28;20084;-80
2022/07/23 11:52:44;;;;;;;10.82;5.90;;;;;;;26.02;53.05;101188.41;5041819;28;20053;-80
2022/07/23 11:55:15;;;;;;;8.70;5.88;;;;;;;26.51;51.54;101191.28;5045197;28;20061;-85
2022/07/23 11:57:45;;;;;;;9.60;6.88;;;;;;;26.07;50.54;101196.53;5047068;28;20041;-85
2022/07/23 12:00:14;;;;;;;8.85;6.75;;;;;;;25.63;51.21;101199.00;5050780;28;20049;-81
2022/07/23 12:02:43;;;;;;;9.18;6.65;;;;;;;26.00;50.93;101191.34;5044603;28;20046;-82
2022/07/23 12:05:13;;;;;;;9.48;6.40;;;;;;;25.81;48.27;101187.28;5043752;28;20049;-81
2022/07/23 12:07:43;;;;;;;6.90;5.18;;;;;;;26.27;49.19;101188.00;5044335;28;20045;-82
2022/07/23 12:10:13;;;;;;;11.23;6.65;;;;;;;26.22;49.88;101190.59;5043632;28;20132;-81
2022/07/23 12:12:42;;;;;;;6.38;4.85;;;;;;;26.70;48.89;101190.75;5043412;28;20049;-80
2022/07/23 12:15:12;;;;;;;5.28;4.72;;;;;;;26.69;48.68;101185.63;5042421;28;20052;-80
2022/07/23 12:17:40;;;;;;;9.82;5.65;;;;;;;26.88;49.09;101192.31;5041413;28;20053;-81
2022/07/23 12:20:10;;;;;;;6.00;5.20;;;;;;;26.64;48.29;101186.38;5042161;28;20629;-80
2022/07/23 12:22:40;;;;;;;5.45;4.85;;;;;;;26.63;47.59;101192.81;5043286;28;20049;-81
2022/07/23 12:25:09;;;;;;;6.55;5.20;;;;;;;26.80;48.05;101189.25;5041270;28;20422;-83
2022/07/23 12:27:35;;;;;;;6.15;5.13;;;;;;;26.84;49.17;101188.50;5041276;28;20103;-81
2022/07/23 12:30:26;;;;;;;7.72;4.95;;;;;;;26.77;48.20;101190.56;5045811;28;20053;-81
2022/07/23 12:32:55;;;;;;;6.85;5.68;;;;;;;26.64;47.93;101188.25;5033396;28;20046;-80
2022/07/23 12:35:24;;;;;;;7.57;5.47;;;;;;;26.55;50.25;101193.22;5044592;28;20045;-81
2022/07/23 12:37:55;;;;;;;8.40;6.05;;;;;;;26.67;49.54;101193.94;5047481;28;20050;-81
2022/07/23 12:40:32;;;;;;;6.97;5.70;;;;;;;26.82;49.40;101187.94;5047523;28;20049;-82
2022/07/23 12:43:01;;;;;;;6.47;5.55;;;;;;;26.78;49.39;101190.31;5047345;28;20045;-81
2022/07/23 12:45:43;;;;;;;7.05;4.78;;;;;;;26.68;48.24;101189.38;5047674;28;20057;-80
2022/07/23 12:48:18;;;;;;;8.48;4.78;;;;;;;26.66;49.07;101189.63;5045386;28;20045;-81
2022/07/23 12:50:50;;;;;;;4.93;4.47;;;;;;;26.91;48.97;101202.56;5045293;28;20060;-81
2022/07/23 12:53:19;;;;;;;7.75;5.00;;;;;;;26.69;47.67;101202.56;5047773;28;20052;-81
2022/07/23 12:55:47;;;;;;;7.07;4.85;;;;;;;26.94;48.94;101195.88;5048210;28;20072;-81
2022/07/23 12:58:17;;;;;;;5.90;4.80;;;;;;;26.76;48.45;101191.63;5043652;28;20123;-82
2022/07/23 13:01:01;;;;;;;7.05;5.60;;;;;;;26.63;48.81;101194.69;5043513;28;20104;-82
2022/07/23 13:03:31;;;;;;;6.97;5.30;;;;;;;26.74;48.51;101197.25;5042145;28;20107;-81
2022/07/23 13:05:59;;;;;;;9.25;5.60;;;;;;;26.60;48.93;101198.66;5043725;28;20057;-79
2022/07/23 13:08:27;;;;;;;6.47;4.93;;;;;;;26.85;49.29;101200.06;5041408;28;20053;-79
2022/07/23 13:10:54;;;;;;;5.68;4.90;;;;;;;26.59;48.58;101202.41;5042679;28;20057;-81
2022/07/23 13:13:22;;;;;;;6.38;4.82;;;;;;;26.57;48.58;101206.41;5042785;28;20045;-81
2022/07/23 13:15:49;;;;;;;6.93;5.35;;;;;;;26.71;47.18;101200.44;5043213;28;20118;-82
2022/07/23 13:18:26;;;;;;;7.07;5.00;;;;;;;26.93;46.65;101196.94;5043793;28;20406;-81
2022/07/23 13:20:53;;;;;;;6.05;4.50;;;;;;;26.76;47.32;101208.56;5042462;28;20045;-82
2022/07/23 13:23:20;;;;;;;8.80;5.40;;;;;;;26.94;48.03;101203.94;5041955;28;20042;-81
2022/07/23 13:25:48;;;;;;;9.10;5.72;;;;;;;26.99;48.59;101199.44;5043386;28;20068;-79
2022/07/23 13:28:15;;;;;;;6.47;5.53;;;;;;;27.01;47.59;101204.56;5042851;28;20065;-82
2022/07/23 13:30:42;;;;;;;7.45;5.65;;;;;;;26.91;47.50;101199.88;5042851;28;20041;-81
2022/07/23 13:33:09;;;;;;;7.28;5.15;;;;;;;26.87;48.01;101192.56;5044521;28;20049;-81
2022/07/23 13:35:38;;;;;;;9.68;5.80;;;;;;;26.38;48.57;101193.28;5044535;28;20057;-82
2022/07/23 13:38:08;;;;;;;6.00;5.20;;;;;;;26.77;50.52;101201.31;5039463;28;20151;-82
2022/07/23 13:40:35;;;;;;;8.77;5.63;;;;;;;26.99;48.38;101186.00;5039876;28;20049;-82
2022/07/23 13:43:02;;;;;;;7.50;5.50;;;;;;;27.07;48.54;101182.06;5043252;28;20068;-81
2022/07/23 13:45:28;;;;;;;7.25;5.30;;;;;;;26.99;48.31;101179.84;5044148;28;20049;-82
2022/07/23 13:47:55;;;;;;;7.93;5.93;;;;;;;26.64;47.91;101182.88;5049708;28;20045;-80
2022/07/23 13:50:22;;;;;;;7.35;5.40;;;;;;;26.54;49.90;101183.56;5047550;28;20072;-82
2022/07/23 13:52:50;;;;;;;7.65;5.60;;;;;;;26.43;47.93;101179.13;5045360;28;20077;-81
2022/07/23 13:55:17;;;;;;;6.70;5.40;;;;;;;26.69;48.39;101181.06;5041894;28;20128;-81
2022/07/23 13:57:44;;;;;;;7.05;5.80;;;;;;;26.52;47.84;101177.63;5041601;28;20049;-82
2022/07/23 14:00:12;;;;;;;6.03;5.30;;;;;;;26.44;48.64;101176.19;5061257;28;20065;-83
2022/07/23 14:02:40;;;;;;;5.85;5.18;;;;;;;26.50;48.48;101171.69;5062931;28;20045;-81
2022/07/23 14:05:08;;;;;;;8.10;5.70;;;;;;;26.62;48.05;101172.38;5062258;28;20098;-81